Time;durP1;ratioP1;P1;durP2;ratioP2;P2;SDS_P1;SDS_P2;PMS_P1;PMS_P2;Temp;Humidity;BMP_temperature;BMP_pressure;BME280_temperature;BME280_humidity;BME280_pressure;Samples;Min_cycle;Max_cycle;Signal;HPM_P1;HPM_P2
2022/06/25 00:00:56;;;;;;;1.27;0.73;;;15.30;59.50;;;;;;4953747;28;20230;-59
2022/06/25 00:03:29;;;;;;;1.15;0.90;;;15.30;59.50;;;;;;4954863;29;20214;-59
2022/06/25 00:06:02;;;;;;;1.00;0.70;;;15.40;59.60;;;;;;4954224;28;20215;-58
2022/06/25 00:08:33;;;;;;;0.70;0.70;;;15.40;59.60;;;;;;4954369;29;20199;-58
2022/06/25 00:11:07;;;;;;;1.95;0.90;;;15.40;59.50;;;;;;4953559;29;20198;-59
2022/06/25 00:13:36;;;;;;;0.63;0.60;;;15.40;59.50;;;;;;4953795;29;20210;-59
2022/06/25 00:16:07;;;;;;;0.70;0.70;;;15.50;59.60;;;;;;4952758;28;20225;-57
2022/06/25 00:18:39;;;;;;;0.88;0.77;;;15.50;59.70;;;;;;4953323;29;20550;-59
2022/06/25 00:21:10;;;;;;;0.70;0.50;;;15.50;59.70;;;;;;4954974;29;20586;-58
2022/06/25 00:23:41;;;;;;;0.77;0.70;;;15.50;59.70;;;;;;4953645;29;20211;-59
2022/06/25 00:26:11;;;;;;;0.90;0.70;;;15.60;59.70;;;;;;4954192;28;20214;-58
2022/06/25 00:28:42;;;;;;;1.25;0.80;;;15.60;59.70;;;;;;4952818;29;20198;-58
2022/06/25 00:31:13;;;;;;;1.48;0.95;;;15.60;59.70;;;;;;4953554;29;20207;-57
2022/06/25 00:33:45;;;;;;;0.70;0.60;;;15.60;59.70;;;;;;4953402;29;20198;-61
2022/06/25 00:36:16;;;;;;;0.50;0.50;;;15.60;59.70;;;;;;4953792;29;20820;-60
2022/06/25 00:38:47;;;;;;;4.00;1.38;;;15.60;59.70;;;;;;4953626;29;20206;-56
2022/06/25 00:41:17;;;;;;;5.88;2.63;;;15.70;59.80;;;;;;4953499;29;20207;-58
2022/06/25 00:43:48;;;;;;;9.82;3.55;;;15.70;59.70;;;;;;4953726;28;20201;-60
2022/06/25 00:46:19;;;;;;;7.68;2.40;;;15.80;59.70;;;;;;4953812;29;20327;-54
2022/06/25 00:48:51;;;;;;;10.52;2.20;;;15.80;59.70;;;;;;4953926;29;20602;-57
2022/06/25 00:51:25;;;;;;;6.05;2.28;;;15.90;59.70;;;;;;4954595;29;20202;-59
2022/06/25 00:53:57;;;;;;;8.02;2.92;;;15.90;59.60;;;;;;4952780;28;20198;-58
2022/06/25 00:56:30;;;;;;;9.50;2.38;;;15.90;59.60;;;;;;4952595;29;20693;-56
2022/06/25 00:59:04;;;;;;;6.18;2.10;;;16.00;59.70;;;;;;4952317;29;20199;-57
2022/06/25 01:01:36;;;;;;;5.47;2.50;;;16.00;59.60;;;;;;4952000;28;20643;-60
2022/06/25 01:04:09;;;;;;;6.25;2.50;;;16.00;59.60;;;;;;4951547;28;20202;-60
2022/06/25 01:06:40;;;;;;;5.95;2.17;;;16.10;59.70;;;;;;4952370;29;20655;-60
2022/06/25 01:09:10;;;;;;;8.38;2.50;;;16.10;59.60;;;;;;4952084;29;20215;-60
2022/06/25 01:11:41;;;;;;;6.22;2.13;;;16.10;59.60;;;;;;4952221;29;20673;-59
2022/06/25 01:14:13;;;;;;;7.80;2.10;;;16.10;59.60;;;;;;4952349;28;20618;-59
2022/06/25 01:16:44;;;;;;;5.35;2.58;;;16.10;59.50;;;;;;4952160;29;20210;-59
2022/06/25 01:19:16;;;;;;;7.68;2.40;;;16.20;59.60;;;;;;4952059;29;20207;-60
2022/06/25 01:21:47;;;;;;;5.70;2.28;;;16.20;59.60;;;;;;4952777;29;20199;-59
2022/06/25 01:24:20;;;;;;;6.32;2.20;;;16.20;59.60;;;;;;4951771;28;20706;-59
2022/06/25 01:26:50;;;;;;;7.07;2.55;;;16.20;59.60;;;;;;4951935;29;20195;-60
2022/06/25 01:29:21;;;;;;;4.00;2.28;;;16.30;59.60;;;;;;4951944;29;20594;-57
2022/06/25 01:31:52;;;;;;;7.60;2.30;;;16.30;59.60;;;;;;4952201;29;20206;-59
2022/06/25 01:34:23;;;;;;;7.20;2.40;;;16.30;59.60;;;;;;4951744;28;20219;-58
2022/06/25 01:36:53;;;;;;;3.63;2.03;;;16.40;59.60;;;;;;4951896;29;20195;-57
2022/06/25 01:39:26;;;;;;;4.40;2.13;;;16.40;59.50;;;;;;4951900;29;20218;-58
2022/06/25 01:41:56;;;;;;;6.82;2.25;;;16.40;59.60;;;;;;4951934;29;20650;-57
2022/06/25 01:44:28;;;;;;;8.35;2.70;;;16.40;59.50;;;;;;4952125;28;20230;-56
2022/06/25 01:46:59;;;;;;;6.10;2.05;;;16.50;60.30;;;;;;4951675;29;20259;-57
2022/06/25 01:49:30;;;;;;;5.72;2.00;;;16.50;59.60;;;;;;4951401;29;20611;-58
2022/06/25 01:52:00;;;;;;;4.63;2.38;;;16.50;59.50;;;;;;4952043;29;20205;-58
2022/06/25 01:54:33;;;;;;;3.88;2.28;;;16.50;59.70;;;;;;4951805;28;20619;-58
2022/06/25 01:57:04;;;;;;;5.78;2.33;;;16.50;59.40;;;;;;4951875;29;20680;-59
2022/06/25 01:59:34;;;;;;;5.35;2.35;;;16.60;59.40;;;;;;4951648;29;20226;-57
2022/06/25 02:02:05;;;;;;;6.10;2.13;;;16.60;59.40;;;;;;4952204;28;20202;-57
2022/06/25 02:04:36;;;;;;;5.20;2.55;;;16.60;59.40;;;;;;4951745;28;20227;-57
2022/06/25 02:07:07;;;;;;;3.63;2.00;;;16.60;59.40;;;;;;4951854;29;20202;-58
2022/06/25 02:09:40;;;;;;;6.50;2.65;;;16.70;59.50;;;;;;4951445;29;20712;-59
2022/06/25 02:12:11;;;;;;;4.47;1.95;;;16.70;59.50;;;;;;4951781;29;20554;-59
2022/06/25 02:14:41;;;;;;;3.60;2.10;;;16.70;59.50;;;;;;4953781;28;20587;-58
2022/06/25 02:17:12;;;;;;;4.10;1.80;;;16.70;59.50;;;;;;4955484;29;20203;-57
2022/06/25 02:19:43;;;;;;;5.18;2.10;;;16.70;59.50;;;;;;4955103;29;20445;-58
2022/06/25 02:22:14;;;;;;;4.55;1.92;;;16.80;59.50;;;;;;4955770;29;20198;-58
2022/06/25 02:24:47;;;;;;;5.20;2.00;;;16.80;59.50;;;;;;4954792;28;20567;-58
2022/06/25 02:27:18;;;;;;;5.47;2.20;;;16.80;59.50;;;;;;4955164;29;20199;-58
2022/06/25 02:29:49;;;;;;;4.65;2.25;;;16.80;59.50;;;;;;4955060;29;20223;-57
2022/06/25 02:32:19;;;;;;;5.18;2.30;;;16.90;59.50;;;;;;4955172;29;20192;-57
2022/06/25 02:34:50;;;;;;;4.57;2.38;;;16.90;59.40;;;;;;4954819;28;20222;-57
2022/06/25 02:37:21;;;;;;;4.07;2.28;;;17.00;59.40;;;;;;4954713;29;20195;-58
2022/06/25 02:39:53;;;;;;;5.35;2.28;;;17.00;59.40;;;;;;4955117;29;20199;-54
2022/06/25 02:42:24;;;;;;;6.20;2.10;;;17.00;59.30;;;;;;4955165;29;20210;-56
2022/06/25 02:44:55;;;;;;;4.88;1.70;;;17.00;59.30;;;;;;4954603;28;20229;-56
2022/06/25 02:47:25;;;;;;;5.40;1.88;;;17.00;59.30;;;;;;4954761;29;20651;-55
2022/06/25 02:49:56;;;;;;;3.65;2.22;;;17.10;59.30;;;;;;4954448;29;20227;-58
2022/06/25 02:52:27;;;;;;;4.35;1.95;;;17.10;59.30;;;;;;4954900;29;20209;-58
2022/06/25 02:54:59;;;;;;;5.63;2.17;;;17.10;59.30;;;;;;4954984;28;20249;-57
2022/06/25 03:00:17;;;;;;;4.30;1.90;;;17.20;59.30;;;;;;4954708;29;20887;-55
2022/06/25 03:02:47;;;;;;;3.13;1.83;;;17.30;59.30;;;;;;4954319;29;20206;-56
2022/06/25 03:05:18;;;;;;;5.00;1.80;;;17.30;59.30;;;;;;4954849;28;20219;-56
2022/06/25 03:07:49;;;;;;;4.68;1.92;;;17.30;59.30;;;;;;4954570;29;20286;-57
2022/06/25 03:10:22;;;;;;;4.13;2.00;;;17.30;59.30;;;;;;4954176;29;20279;-59
2022/06/25 03:12:52;;;;;;;4.00;2.00;;;17.40;59.30;;;;;;4954328;29;20199;-56
2022/06/25 03:15:23;;;;;;;2.85;2.00;;;17.40;59.30;;;;;;4954221;28;20229;-56
2022/06/25 03:17:54;;;;;;;2.97;1.50;;;17.40;59.20;;;;;;4953962;29;20199;-58
2022/06/25 03:20:25;;;;;;;3.45;2.00;;;17.50;59.20;;;;;;4954152;29;20198;-57
2022/06/25 03:22:55;;;;;;;3.35;2.00;;;17.50;59.20;;;;;;4954706;29;20546;-57
2022/06/25 03:25:28;;;;;;;3.60;2.17;;;17.50;59.10;;;;;;4953065;28;20219;-56
2022/06/25 03:27:59;;;;;;;3.30;1.90;;;17.50;59.10;;;;;;4953932;29;20662;-58
2022/06/25 03:30:30;;;;;;;2.35;1.70;;;17.60;59.10;;;;;;4953895;29;20641;-57
2022/06/25 03:33:00;;;;;;;3.50;1.92;;;17.60;59.10;;;;;;4953698;29;20622;-57
2022/06/25 03:35:32;;;;;;;3.53;1.80;;;17.60;59.10;;;;;;4953962;28;20222;-57
2022/06/25 03:38:02;;;;;;;3.53;2.03;;;17.60;59.10;;;;;;4953946;29;20202;-59
2022/06/25 03:40:35;;;;;;;2.40;1.75;;;17.70;59.20;;;;;;4953931;29;20199;-57
2022/06/25 03:43:06;;;;;;;4.05;1.75;;;17.70;59.20;;;;;;4954317;29;20206;-56
2022/06/25 03:45:38;;;;;;;3.25;1.60;;;17.70;59.20;;;;;;4953980;28;20230;-56
2022/06/25 03:48:09;;;;;;;4.28;1.88;;;17.80;59.40;;;;;;4953176;29;20218;-56
2022/06/25 03:50:40;;;;;;;4.72;2.17;;;17.80;59.40;;;;;;4953847;29;20257;-56
2022/06/25 03:53:10;;;;;;;2.83;1.70;;;17.80;59.30;;;;;;4953687;29;20229;-56
2022/06/25 03:55:43;;;;;;;4.15;1.85;;;17.80;59.30;;;;;;4953244;28;20210;-55
2022/06/25 03:58:14;;;;;;;4.75;1.75;;;17.90;59.30;;;;;;4954003;28;20714;-57
2022/06/25 04:00:45;;;;;;;4.95;2.15;;;17.90;59.20;;;;;;4953741;28;20199;-56
2022/06/25 04:03:15;;;;;;;3.17;1.52;;;17.90;59.00;;;;;;4953367;28;20203;-57
2022/06/25 04:05:46;;;;;;;3.63;1.55;;;18.00;59.00;;;;;;4953630;28;20219;-53
2022/06/25 04:08:17;;;;;;;3.35;1.73;;;18.00;59.00;;;;;;4953423;29;20203;-59
2022/06/25 04:10:50;;;;;;;3.00;1.65;;;17.90;58.90;;;;;;4953430;29;20226;-58
2022/06/25 04:13:21;;;;;;;2.70;1.58;;;18.00;58.90;;;;;;4953299;29;20741;-58
2022/06/25 04:15:52;;;;;;;3.38;1.60;;;18.00;58.90;;;;;;4953293;28;20242;-60
2022/06/25 04:18:23;;;;;;;2.75;1.60;;;18.00;58.90;;;;;;4953111;29;20201;-59
2022/06/25 04:20:53;;;;;;;2.42;1.60;;;18.00;58.90;;;;;;4953405;29;20203;-59
2022/06/25 04:23:24;;;;;;;2.78;1.60;;;18.00;58.90;;;;;;4953135;29;20202;-58
2022/06/25 04:25:57;;;;;;;3.15;1.80;;;18.10;59.10;;;;;;4953353;28;20230;-58
2022/06/25 04:31:14;;;;;;;2.88;1.80;;;18.10;59.00;;;;;;4952572;29;20311;-58
2022/06/25 04:33:45;;;;;;;4.30;2.08;;;18.10;59.00;;;;;;4952159;29;20573;-57
2022/06/25 04:36:15;;;;;;;3.28;1.75;;;18.10;59.00;;;;;;4952270;28;20195;-58
2022/06/25 04:38:46;;;;;;;3.65;1.50;;;18.10;59.00;;;;;;4952581;29;20214;-58
2022/06/25 04:41:19;;;;;;;4.10;1.50;;;18.10;59.00;;;;;;4952164;29;20198;-59
2022/06/25 04:43:50;;;;;;;2.80;1.23;;;18.00;59.00;;;;;;4951422;28;20194;-57
2022/06/25 04:46:21;;;;;;;3.38;1.60;;;18.00;58.90;;;;;;4952090;29;20647;-57
2022/06/25 04:48:51;;;;;;;2.58;1.73;;;18.10;58.80;;;;;;4951667;29;20206;-59
2022/06/25 04:51:22;;;;;;;3.35;1.50;;;18.10;58.80;;;;;;4952333;29;20223;-55
2022/06/25 04:53:59;;;;;;;2.15;1.35;;;18.00;58.80;;;;;;4952288;28;20206;-59
2022/06/25 04:56:32;;;;;;;2.05;1.45;;;18.00;58.80;;;;;;4952299;29;20238;-56
2022/06/25 04:59:03;;;;;;;2.28;1.75;;;18.00;58.80;;;;;;4952378;29;20203;-54
2022/06/25 05:01:33;;;;;;;4.15;1.55;;;18.00;58.90;;;;;;4952319;29;20202;-58
2022/06/25 05:04:04;;;;;;;3.20;1.50;;;18.00;58.80;;;;;;4952173;28;20203;-56
2022/06/25 05:06:37;;;;;;;4.03;1.50;;;18.00;58.70;;;;;;4952398;29;20202;-57
2022/06/25 05:09:08;;;;;;;3.97;1.58;;;18.00;58.70;;;;;;4951951;29;20310;-55
2022/06/25 05:11:41;;;;;;;3.40;1.60;;;18.00;58.60;;;;;;4951390;29;20293;-55
2022/06/25 05:14:13;;;;;;;3.92;1.67;;;18.00;58.60;;;;;;4951983;29;20215;-55
2022/06/25 05:16:45;;;;;;;2.67;1.50;;;18.00;58.60;;;;;;4951765;29;20207;-54
2022/06/25 05:19:16;;;;;;;2.97;1.63;;;18.00;58.70;;;;;;4951511;29;20195;-56
2022/06/25 05:21:46;;;;;;;3.88;1.77;;;18.00;58.70;;;;;;4952253;29;20199;-55
2022/06/25 05:24:17;;;;;;;3.50;1.63;;;18.00;58.70;;;;;;4952729;28;20224;-55
2022/06/25 05:26:50;;;;;;;3.60;1.60;;;17.90;58.60;;;;;;4952034;29;20205;-55
2022/06/25 05:29:21;;;;;;;3.67;1.70;;;17.90;58.70;;;;;;4951626;29;20203;-52
2022/06/25 05:31:51;;;;;;;4.18;1.75;;;17.90;58.70;;;;;;4951566;29;20231;-55
2022/06/25 05:34:22;;;;;;;2.63;1.10;;;17.90;58.70;;;;;;4951504;28;20218;-53
2022/06/25 05:36:53;;;;;;;3.25;1.70;;;17.90;58.70;;;;;;4951994;29;20639;-56
2022/06/25 05:39:23;;;;;;;2.85;1.55;;;17.90;58.60;;;;;;4951970;29;20198;-56
2022/06/25 05:42:06;;;;;;;3.47;1.83;;;17.90;58.70;;;;;;4951890;29;20195;-56
2022/06/25 05:44:36;;;;;;;1.60;1.30;;;17.90;58.70;;;;;;4951299;28;20218;-55
2022/06/25 05:47:07;;;;;;;2.70;1.50;;;17.90;58.60;;;;;;4951900;29;20671;-56
2022/06/25 05:49:38;;;;;;;1.83;1.40;;;17.80;58.70;;;;;;4953854;28;20677;-57
2022/06/25 05:52:09;;;;;;;3.15;1.38;;;17.80;58.60;;;;;;4956147;29;20704;-55
2022/06/25 05:54:40;;;;;;;2.80;1.35;;;17.80;58.60;;;;;;4955665;28;20214;-56
2022/06/25 05:57:13;;;;;;;2.13;1.35;;;17.80;58.70;;;;;;4955518;29;20202;-54
2022/06/25 05:59:44;;;;;;;2.53;1.42;;;17.80;58.70;;;;;;4955057;29;20210;-56
2022/06/25 06:02:15;;;;;;;1.98;1.15;;;17.80;58.70;;;;;;4955277;29;20200;-54
2022/06/25 06:04:46;;;;;;;1.98;1.40;;;17.80;58.70;;;;;;4954827;28;20223;-54
2022/06/25 06:07:16;;;;;;;2.65;1.42;;;17.70;58.60;;;;;;4955593;29;20199;-55
2022/06/25 06:09:47;;;;;;;2.22;1.40;;;17.70;58.70;;;;;;4955456;29;20198;-55
2022/06/25 06:12:20;;;;;;;1.92;1.30;;;17.70;58.70;;;;;;4955314;29;20230;-55
2022/06/25 06:14:51;;;;;;;2.78;1.38;;;17.70;58.60;;;;;;4955665;28;20301;-56
2022/06/25 06:17:21;;;;;;;2.30;1.33;;;17.70;58.50;;;;;;4955547;29;20202;-55
2022/06/25 06:19:52;;;;;;;1.80;1.30;;;17.70;58.60;;;;;;4954765;29;20206;-57
2022/06/25 06:22:23;;;;;;;2.38;1.70;;;17.70;58.50;;;;;;4955491;29;20568;-55
2022/06/25 06:24:53;;;;;;;1.95;1.42;;;17.60;58.40;;;;;;4955461;28;20716;-55
2022/06/25 06:27:26;;;;;;;2.40;1.42;;;17.60;58.40;;;;;;4955386;29;20199;-55
2022/06/25 06:29:59;;;;;;;2.60;1.20;;;17.60;58.40;;;;;;4955071;29;20198;-55
2022/06/25 06:32:59;;;;;;;1.85;1.35;;;17.60;58.40;;;;;;4954744;29;20528;-62
2022/06/25 06:35:30;;;;;;;2.25;1.10;;;17.60;58.40;;;;;;4954429;28;20706;-56
2022/06/25 06:38:02;;;;;;;1.80;1.55;;;17.60;58.40;;;;;;4954754;29;20210;-55
2022/06/25 06:40:33;;;;;;;3.55;1.63;;;17.60;58.50;;;;;;4954863;29;20591;-53
2022/06/25 06:43:06;;;;;;;2.17;1.40;;;17.60;58.50;;;;;;4952159;28;20210;-56
2022/06/25 06:45:36;;;;;;;2.22;1.33;;;17.50;58.40;;;;;;4955480;28;20966;-59
2022/06/25 06:48:08;;;;;;;2.42;1.25;;;17.50;58.40;;;;;;4953603;28;20203;-56
2022/06/25 06:50:38;;;;;;;3.22;1.40;;;17.50;58.40;;;;;;4954718;28;20221;-58
2022/06/25 06:53:09;;;;;;;2.17;1.35;;;17.50;58.50;;;;;;4954940;28;20580;-57
2022/06/25 06:55:40;;;;;;;1.60;1.20;;;17.50;58.50;;;;;;4955592;28;20278;-58
2022/06/25 06:58:13;;;;;;;2.13;1.23;;;17.40;58.50;;;;;;4955643;29;20419;-58
2022/06/25 07:00:43;;;;;;;2.00;1.35;;;17.40;58.50;;;;;;4954851;28;20191;-60
2022/06/25 07:03:14;;;;;;;1.50;1.20;;;17.40;58.50;;;;;;4954524;29;20199;-59
2022/06/25 07:05:45;;;;;;;1.77;1.20;;;17.40;58.50;;;;;;4954034;28;20214;-61
2022/06/25 07:08:16;;;;;;;1.88;1.48;;;17.40;58.50;;;;;;4954798;29;20199;-58
2022/06/25 07:10:47;;;;;;;1.88;1.20;;;17.40;58.50;;;;;;4953548;28;20194;-58
2022/06/25 07:13:19;;;;;;;2.55;1.40;;;17.40;58.50;;;;;;4954736;29;20226;-58
2022/06/25 07:15:50;;;;;;;1.65;1.30;;;17.30;58.40;;;;;;4954515;28;20721;-59
2022/06/25 07:18:21;;;;;;;3.03;1.35;;;17.30;58.40;;;;;;4955211;29;20199;-57
2022/06/25 07:20:51;;;;;;;1.77;1.25;;;17.30;58.40;;;;;;4954396;28;20214;-59
2022/06/25 07:23:22;;;;;;;1.52;1.23;;;17.30;58.40;;;;;;4952808;29;20213;-59
2022/06/25 07:25:53;;;;;;;2.15;1.30;;;17.30;58.40;;;;;;4953958;28;20214;-57
2022/06/25 07:28:25;;;;;;;2.00;1.35;;;17.30;58.50;;;;;;4953874;29;20675;-62
2022/06/25 07:30:56;;;;;;;2.00;1.60;;;17.20;58.60;;;;;;4954428;28;20195;-58
2022/06/25 07:33:27;;;;;;;1.50;1.08;;;17.20;58.70;;;;;;4953419;29;20210;-58
2022/06/25 07:35:57;;;;;;;2.05;1.00;;;17.20;58.80;;;;;;4953867;28;20266;-57
2022/06/25 07:38:28;;;;;;;1.20;1.10;;;17.20;58.90;;;;;;4954144;28;20203;-58
2022/06/25 07:40:59;;;;;;;1.27;1.10;;;17.20;58.90;;;;;;4954060;28;20692;-58
2022/06/25 07:43:32;;;;;;;1.52;1.13;;;17.20;59.00;;;;;;4953936;29;20233;-61
2022/06/25 07:46:03;;;;;;;1.17;1.00;;;17.10;58.80;;;;;;4952998;28;20219;-58
2022/06/25 07:48:34;;;;;;;2.28;1.17;;;17.10;58.80;;;;;;4953919;29;20234;-59
2022/06/25 07:53:52;;;;;;;2.35;1.13;;;17.10;58.80;;;;;;4954248;28;20280;-58
2022/06/25 07:56:22;;;;;;;1.77;1.30;;;17.10;58.70;;;;;;4953347;28;20195;-60
2022/06/25 07:58:55;;;;;;;2.35;1.20;;;17.10;58.70;;;;;;4953385;29;20203;-58
2022/06/25 08:01:25;;;;;;;1.92;1.20;;;17.00;58.70;;;;;;4953826;28;20195;-59
2022/06/25 08:03:56;;;;;;;1.95;1.40;;;17.00;58.70;;;;;;4953650;28;20203;-58
2022/06/25 08:06:27;;;;;;;1.75;1.38;;;17.00;58.60;;;;;;4953716;28;20202;-58
2022/06/25 08:08:58;;;;;;;1.30;1.17;;;17.00;58.60;;;;;;4954737;29;20227;-59
2022/06/25 08:11:29;;;;;;;1.67;1.17;;;17.00;58.60;;;;;;4953996;28;20610;-56
2022/06/25 08:14:02;;;;;;;1.25;1.05;;;16.90;58.60;;;;;;4933958;29;20242;-58
2022/06/25 08:16:33;;;;;;;1.90;1.25;;;17.00;58.60;;;;;;4950228;28;20218;-58
2022/06/25 08:19:10;;;;;;;1.67;1.20;;;16.90;58.60;;;;;;4953710;29;20241;-61
2022/06/25 08:21:41;;;;;;;1.90;1.13;;;16.90;58.50;;;;;;4953842;28;20202;-59
2022/06/25 08:24:11;;;;;;;1.73;1.20;;;16.90;58.50;;;;;;4952774;28;20219;-58
2022/06/25 08:26:43;;;;;;;1.65;1.15;;;16.90;58.60;;;;;;4954515;28;20678;-59
2022/06/25 08:29:16;;;;;;;1.58;1.40;;;16.80;58.50;;;;;;4935371;29;20199;-59
2022/06/25 08:31:46;;;;;;;2.40;1.40;;;16.80;58.50;;;;;;4935294;29;20223;-59
2022/06/25 08:34:17;;;;;;;1.90;1.45;;;16.80;58.50;;;;;;4954749;28;20223;-59
2022/06/25 08:36:48;;;;;;;2.78;1.40;;;16.80;58.50;;;;;;4954480;29;20202;-57
2022/06/25 08:39:18;;;;;;;1.75;1.65;;;16.70;58.50;;;;;;4953857;28;20203;-59
2022/06/25 08:41:49;;;;;;;2.17;1.50;;;16.70;58.40;;;;;;4954024;29;20199;-59
2022/06/25 08:44:22;;;;;;;3.72;1.80;;;16.70;58.40;;;;;;4953814;28;20218;-59
2022/06/25 08:46:54;;;;;;;3.30;2.03;;;16.70;58.40;;;;;;4953594;29;20213;-59
2022/06/25 08:49:25;;;;;;;2.78;2.00;;;16.70;58.40;;;;;;4953830;29;20210;-59
2022/06/25 08:51:57;;;;;;;1.95;1.45;;;16.60;58.30;;;;;;4953908;29;20238;-59
2022/06/25 08:54:28;;;;;;;1.80;1.38;;;16.60;58.40;;;;;;4953220;28;20219;-59
2022/06/25 08:56:59;;;;;;;2.17;1.90;;;16.60;58.40;;;;;;4953921;29;20634;-59
2022/06/25 08:59:32;;;;;;;2.35;1.73;;;16.60;58.40;;;;;;4952848;29;20195;-59
2022/06/25 09:02:03;;;;;;;2.90;2.00;;;16.60;58.30;;;;;;4953298;29;20199;-59
2022/06/25 09:04:33;;;;;;;1.70;1.60;;;16.50;58.30;;;;;;4953357;29;20223;-59
2022/06/25 09:07:14;;;;;;;2.85;1.98;;;16.50;58.30;;;;;;4952283;28;20205;-58
2022/06/25 09:09:49;;;;;;;2.65;2.08;;;16.50;58.30;;;;;;4952981;29;20232;-59
2022/06/25 09:12:22;;;;;;;2.55;1.85;;;16.50;58.30;;;;;;4953325;29;20222;-57
2022/06/25 09:14:54;;;;;;;2.17;1.85;;;16.50;58.30;;;;;;4953287;28;20226;-59
2022/06/25 09:17:26;;;;;;;2.75;1.95;;;16.50;58.30;;;;;;4953455;29;20555;-58
2022/06/25 09:19:57;;;;;;;2.63;2.10;;;16.40;58.30;;;;;;4953679;29;20206;-59
2022/06/25 09:22:30;;;;;;;3.92;2.28;;;16.40;58.30;;;;;;4953285;28;20844;-59
2022/06/25 09:25:01;;;;;;;2.72;2.28;;;16.40;58.30;;;;;;4952385;28;20222;-60
2022/06/25 09:27:38;;;;;;;2.88;2.20;;;16.40;58.30;;;;;;4953345;29;20206;-60
2022/06/25 09:30:15;;;;;;;3.63;2.13;;;16.30;58.20;;;;;;4952689;28;20199;-59
2022/06/25 09:32:46;;;;;;;2.40;2.20;;;16.30;58.20;;;;;;4952755;28;20237;-59
2022/06/25 09:35:29;;;;;;;2.85;2.17;;;16.30;58.30;;;;;;4951717;28;20231;-58
2022/06/25 09:38:05;;;;;;;2.85;2.38;;;16.30;58.30;;;;;;4952904;28;20202;-58
2022/06/25 09:40:37;;;;;;;2.80;2.38;;;16.30;58.30;;;;;;4951837;29;20858;-58
2022/06/25 09:43:17;;;;;;;2.92;2.50;;;16.20;58.20;;;;;;4952320;29;20207;-58
2022/06/25 09:45:51;;;;;;;3.78;2.88;;;16.20;58.20;;;;;;4947858;28;20223;-56
2022/06/25 09:48:23;;;;;;;2.53;2.10;;;16.20;58.20;;;;;;4943938;29;20306;-55
2022/06/25 09:51:09;;;;;;;2.55;2.17;;;16.20;58.30;;;;;;4951238;28;20570;-55
2022/06/25 09:53:48;;;;;;;2.47;2.28;;;16.10;58.20;;;;;;4948903;29;20234;-56
2022/06/25 09:56:20;;;;;;;2.75;2.20;;;16.20;58.30;;;;;;4950526;28;20642;-55
2022/06/25 09:58:53;;;;;;;3.33;2.38;;;16.10;58.20;;;;;;4952301;28;20199;-58
2022/06/25 10:01:27;;;;;;;2.42;2.10;;;16.10;58.80;;;;;;4964249;28;20202;-57
2022/06/25 10:03:58;;;;;;;2.58;2.33;;;16.10;58.20;;;;;;4953851;28;20210;-58
2022/06/25 10:06:35;;;;;;;3.63;2.50;;;16.00;58.20;;;;;;4952964;28;20199;-56
2022/06/25 10:09:08;;;;;;;2.72;2.22;;;16.00;58.50;;;;;;4952386;28;20681;-56
2022/06/25 10:11:39;;;;;;;2.35;2.10;;;16.00;58.30;;;;;;4951792;28;20245;-56
2022/06/25 10:14:10;;;;;;;2.78;2.30;;;16.00;58.20;;;;;;4952177;28;20210;-57
2022/06/25 10:16:43;;;;;;;3.22;2.50;;;15.90;58.20;;;;;;4952539;28;20224;-55
2022/06/25 10:19:16;;;;;;;3.47;2.65;;;16.00;58.30;;;;;;4952237;29;20678;-56
2022/06/25 10:21:49;;;;;;;3.05;2.42;;;15.90;58.30;;;;;;4952172;28;20191;-55
2022/06/25 10:24:20;;;;;;;3.13;2.20;;;15.90;58.30;;;;;;4951513;28;20222;-55
2022/06/25 10:26:51;;;;;;;2.53;2.33;;;15.90;58.30;;;;;;4951318;28;20554;-56
2022/06/25 10:29:31;;;;;;;3.10;2.60;;;15.90;58.40;;;;;;4952252;28;20199;-57
2022/06/25 10:32:20;;;;;;;3.28;2.75;;;15.90;58.40;;;;;;4952366;28;20199;-56
2022/06/25 10:34:58;;;;;;;2.88;2.53;;;15.80;58.30;;;;;;4952669;28;20559;-54
2022/06/25 10:37:28;;;;;;;3.03;2.40;;;15.80;58.30;;;;;;4955114;28;20203;-56
2022/06/25 10:39:59;;;;;;;2.85;2.38;;;15.80;58.40;;;;;;4955178;28;20915;-56
2022/06/25 10:45:53;;;;;;;2.60;2.40;;;15.80;58.40;;;;;;4954777;28;20269;-56
2022/06/25 10:48:26;;;;;;;2.92;2.28;;;15.80;58.40;;;;;;4954964;29;20194;-56
2022/06/25 10:50:58;;;;;;;2.95;2.25;;;15.70;58.30;;;;;;4954401;28;20198;-57
2022/06/25 10:53:30;;;;;;;2.42;2.22;;;15.70;58.40;;;;;;4942066;29;20231;-58
2022/06/25 10:56:17;;;;;;;2.85;2.13;;;15.70;58.40;;;;;;4954271;28;20223;-56
2022/06/25 10:58:52;;;;;;;2.45;2.22;;;15.70;58.50;;;;;;4954432;29;20236;-58
2022/06/25 11:01:34;;;;;;;3.22;2.55;;;15.60;58.40;;;;;;4954517;28;20201;-57
2022/06/25 11:04:14;;;;;;;3.58;2.10;;;15.60;58.40;;;;;;4954088;28;20199;-59
2022/06/25 11:06:44;;;;;;;2.65;2.22;;;15.60;58.40;;;;;;4955246;28;20199;-56
2022/06/25 11:09:18;;;;;;;3.97;2.30;;;15.60;58.40;;;;;;4955420;28;20202;-53
2022/06/25 11:12:03;;;;;;;2.55;2.22;;;15.60;58.50;;;;;;4954378;28;20199;-56
2022/06/25 11:14:37;;;;;;;2.50;2.13;;;15.60;58.50;;;;;;4954943;28;20718;-58
2022/06/25 11:17:11;;;;;;;2.45;2.08;;;15.60;58.50;;;;;;4955553;28;20194;-58
2022/06/25 11:19:54;;;;;;;2.85;2.40;;;15.60;58.50;;;;;;4955122;29;20202;-56
2022/06/25 11:22:28;;;;;;;3.15;2.25;;;15.60;58.50;;;;;;4955126;28;20569;-56
2022/06/25 11:30:35;;;;;;;2.42;2.22;;;15.50;58.50;;;;;;4954833;28;20214;-56
2022/06/25 11:33:14;;;;;;;2.83;2.15;;;15.50;58.50;;;;;;4955147;29;20227;-57
2022/06/25 11:35:51;;;;;;;2.83;2.13;;;15.50;58.50;;;;;;4954026;28;20226;-59
2022/06/25 11:38:23;;;;;;;2.45;1.98;;;15.50;58.50;;;;;;4954831;29;20239;-57
2022/06/25 11:40:55;;;;;;;2.70;2.20;;;15.50;58.60;;;;;;4954635;28;20202;-57
2022/06/25 11:43:31;;;;;;;2.13;1.80;;;15.40;58.50;;;;;;4954558;29;20206;-57
2022/06/25 11:46:03;;;;;;;2.15;1.75;;;15.50;58.60;;;;;;4953331;28;20210;-56
2022/06/25 11:48:34;;;;;;;2.80;2.10;;;15.40;58.50;;;;;;4954471;29;20210;-57
2022/06/25 11:51:07;;;;;;;3.38;2.30;;;15.40;58.50;;;;;;4954683;28;20199;-56
2022/06/25 11:53:39;;;;;;;3.55;2.05;;;15.40;58.60;;;;;;4954753;29;20285;-55
2022/06/25 11:56:10;;;;;;;2.67;2.10;;;15.40;58.60;;;;;;4954511;28;20298;-56
2022/06/25 11:58:45;;;;;;;2.33;1.80;;;15.40;58.60;;;;;;4954671;29;20689;-59
2022/06/25 12:01:16;;;;;;;2.25;2.05;;;15.40;58.70;;;;;;4958943;28;20198;-58
2022/06/25 12:03:47;;;;;;;1.83;1.63;;;15.40;58.70;;;;;;4973607;28;20653;-58
2022/06/25 12:06:20;;;;;;;2.78;2.05;;;15.40;58.60;;;;;;4972713;28;20670;-57
2022/06/25 12:08:51;;;;;;;2.90;1.90;;;15.40;58.70;;;;;;4953043;29;20589;-57
2022/06/25 12:11:23;;;;;;;2.90;1.67;;;15.40;58.60;;;;;;4954090;28;20203;-57
2022/06/25 12:13:53;;;;;;;2.92;1.83;;;15.40;58.60;;;;;;4954205;28;20227;-58
2022/06/25 12:16:24;;;;;;;1.95;1.70;;;15.40;58.70;;;;;;4953735;28;20198;-56
2022/06/25 12:18:58;;;;;;;2.58;1.92;;;15.40;58.70;;;;;;4954046;29;20206;-58
2022/06/25 12:21:31;;;;;;;4.10;2.05;;;15.40;58.70;;;;;;4953036;28;20198;-58
2022/06/25 12:24:04;;;;;;;2.35;1.85;;;15.30;58.60;;;;;;4953876;28;20215;-59
2022/06/25 12:26:35;;;;;;;2.60;1.90;;;15.30;58.60;;;;;;4953519;28;20195;-58
2022/06/25 12:29:10;;;;;;;2.40;1.80;;;15.30;58.60;;;;;;4953627;29;20797;-59
2022/06/25 12:31:42;;;;;;;3.45;2.13;;;15.30;58.70;;;;;;4954596;28;20566;-56
2022/06/25 12:34:13;;;;;;;2.83;2.10;;;15.30;58.70;;;;;;4953197;28;20243;-58
2022/06/25 12:36:45;;;;;;;2.28;1.85;;;15.30;58.70;;;;;;4953330;28;20195;-56
2022/06/25 12:39:47;;;;;;;2.00;1.80;;;15.30;58.70;;;;;;4953630;29;20206;-57
2022/06/25 12:42:17;;;;;;;2.25;1.55;;;15.30;58.70;;;;;;4922414;29;20202;-59
2022/06/25 12:44:49;;;;;;;2.60;1.85;;;15.30;58.70;;;;;;4953729;28;20223;-57
2022/06/25 12:47:20;;;;;;;2.13;1.80;;;15.30;58.70;;;;;;4954109;28;20831;-58
2022/06/25 12:49:53;;;;;;;2.03;1.80;;;15.20;58.70;;;;;;4952933;29;20206;-56
2022/06/25 12:52:27;;;;;;;2.30;1.85;;;15.30;58.70;;;;;;4953905;28;20286;-56
2022/06/25 12:54:59;;;;;;;2.72;1.88;;;15.30;58.70;;;;;;4953334;28;20285;-56
2022/06/25 12:57:31;;;;;;;2.25;1.90;;;15.30;58.70;;;;;;4953373;28;20676;-56
2022/06/25 13:00:03;;;;;;;2.03;1.83;;;15.30;58.70;;;;;;4953689;29;20194;-55
2022/06/25 13:02:34;;;;;;;2.03;1.83;;;15.30;58.70;;;;;;4964940;28;20194;-57
2022/06/25 13:05:05;;;;;;;1.98;1.77;;;15.20;58.60;;;;;;4962118;28;20266;-57
2022/06/25 13:07:37;;;;;;;2.50;1.90;;;15.20;58.60;;;;;;4953586;28;20216;-56
2022/06/25 13:10:09;;;;;;;2.50;1.60;;;15.20;58.60;;;;;;4953729;29;20203;-57
2022/06/25 13:12:39;;;;;;;1.92;1.70;;;15.20;58.60;;;;;;4953767;29;20744;-55
2022/06/25 13:15:11;;;;;;;2.00;1.73;;;15.20;58.70;;;;;;4952891;28;20226;-58
2022/06/25 13:17:43;;;;;;;1.90;1.67;;;15.20;58.70;;;;;;4952130;29;20667;-60
2022/06/25 13:20:14;;;;;;;3.15;1.92;;;15.20;58.70;;;;;;4952429;29;20234;-58
2022/06/25 13:22:47;;;;;;;2.40;1.83;;;15.20;58.70;;;;;;4952497;29;20290;-58
2022/06/25 13:25:18;;;;;;;1.60;1.50;;;15.20;58.70;;;;;;4951844;28;20219;-58
2022/06/25 13:27:48;;;;;;;2.42;2.05;;;15.20;58.70;;;;;;4952280;29;20199;-63
2022/06/25 13:30:19;;;;;;;2.15;1.70;;;15.20;58.70;;;;;;4951973;29;20569;-59